Time;durP1;ratioP1;P1;durP2;ratioP2;P2;SDS_P1;SDS_P2;PMS_P1;PMS_P2;Temp;Humidity;BMP_temperature;BMP_pressure;BME280_temperature;BME280_humidity;BME280_pressure;Samples;Min_cycle;Max_cycle;Signal;HPM_P1;HPM_P2
2021/11/17 02:25:59;;;;;;;;;;;16.90;42.50;;;;;;8363842;28;19946;-48
2021/11/17 02:30:05;;;;;;;;;;;16.90;42.50;;;;;;8341993;28;20356;-51
2021/11/17 02:34:09;;;;;;;;;;;16.90;42.50;;;;;;8364258;28;19924;-51
2021/11/17 02:38:32;;;;;;;;;;;16.90;42.50;;;;;;8364224;28;20320;-50
2021/11/17 02:42:52;;;;;;;;;;;16.90;42.50;;;;;;8363465;28;19917;-48
2021/11/17 02:46:58;;;;;;;;;;;16.90;42.50;;;;;;8363613;28;19917;-52
2021/11/17 02:51:17;;;;;;;;;;;16.90;42.50;;;;;;8363091;28;20019;-50
2021/11/17 02:55:33;;;;;;;;;;;16.80;42.50;;;;;;8363586;28;19967;-51
2021/11/17 02:59:36;;;;;;;;;;;16.90;42.50;;;;;;8362819;28;19913;-49
2021/11/17 03:03:52;;;;;;;;;;;16.80;42.50;;;;;;8363065;28;20393;-50
2021/11/17 03:08:05;;;;;;;;;;;16.80;42.50;;;;;;8362802;28;19917;-49
2021/11/17 03:12:12;;;;;;;;;;;16.90;42.50;;;;;;8362625;28;20298;-49
2021/11/17 03:16:22;;;;;;;;;;;16.80;42.50;;;;;;8363017;28;19995;-50
2021/11/17 03:20:34;;;;;;;;;;;16.90;42.50;;;;;;8362685;28;19913;-50
2021/11/17 03:24:35;;;;;;;;;;;16.90;42.50;;;;;;8362715;28;19921;-51
2021/11/17 03:28:44;;;;;;;;;;;16.80;42.50;;;;;;8362755;28;19920;-48
2021/11/17 03:32:54;;;;;;;;;;;16.80;42.50;;;;;;8364832;28;19929;-48
2021/11/17 03:37:02;;;;;;;;;;;16.90;42.60;;;;;;8369196;28;20392;-52
2021/11/17 03:41:02;;;;;;;;;;;16.80;42.50;;;;;;8369108;28;19921;-48
2021/11/17 03:45:18;;;;;;;;;;;16.80;42.50;;;;;;8368522;28;19962;-49
2021/11/17 03:49:25;;;;;;;;;;;16.80;42.50;;;;;;8369093;28;19962;-48
2021/11/17 03:53:28;;;;;;;;;;;16.80;42.50;;;;;;8368531;28;19929;-51
2021/11/17 03:57:29;;;;;;;;;;;16.80;42.50;;;;;;8367635;28;19921;-48
2021/11/17 04:01:45;;;;;;;;;;;16.80;42.50;;;;;;8368309;28;20215;-48
2021/11/17 04:06:04;;;;;;;;;;;16.80;42.50;;;;;;8367711;28;19917;-47
2021/11/17 04:10:11;;;;;;;;;;;16.80;42.50;;;;;;8368264;28;19925;-48
2021/11/17 04:14:30;;;;;;;;;;;16.80;42.50;;;;;;8367918;28;20374;-49
2021/11/17 04:18:51;;;;;;;;;;;16.80;42.50;;;;;;8367507;28;19923;-48
2021/11/17 04:22:54;;;;;;;;;;;16.80;42.50;;;;;;8346322;28;20284;-48
2021/11/17 04:27:00;;;;;;;;;;;16.80;42.50;;;;;;8367036;28;19921;-51
2021/11/17 04:31:21;;;;;;;;;;;16.80;42.50;;;;;;8367211;28;20015;-47
2021/11/17 04:35:36;;;;;;;;;;;16.80;42.50;;;;;;8367590;28;19917;-47
2021/11/17 04:39:55;;;;;;;;;;;16.80;42.50;;;;;;8367169;28;19917;-48
2021/11/17 04:43:56;;;;;;;;;;;16.80;42.50;;;;;;8366258;28;19917;-49
2021/11/17 04:48:19;;;;;;;;;;;16.80;42.50;;;;;;8365842;28;19971;-49
2021/11/17 04:52:26;;;;;;;;;;;16.80;42.50;;;;;;8366519;28;19979;-49
2021/11/17 04:56:45;;;;;;;;;;;16.80;42.50;;;;;;8366203;28;19921;-49
2021/11/17 05:00:46;;;;;;;;;;;16.80;42.50;;;;;;8366417;28;19923;-49
2021/11/17 05:05:04;;;;;;;;;;;16.80;42.50;;;;;;8366613;28;19913;-48
2021/11/17 05:09:08;;;;;;;;;;;16.80;42.50;;;;;;8359920;28;19956;-49
2021/11/17 05:13:27;;;;;;;;;;;16.80;42.50;;;;;;8366086;28;20390;-49
2021/11/17 05:17:46;;;;;;;;;;;16.80;42.50;;;;;;8365990;28;19969;-49
2021/11/17 05:21:46;;;;;;;;;;;16.80;42.50;;;;;;8365897;28;20385;-53
2021/11/17 05:26:02;;;;;;;;;;;16.80;42.50;;;;;;8366060;28;19913;-49
2021/11/17 05:30:02;;;;;;;;;;;16.80;42.50;;;;;;8365340;28;20396;-50
2021/11/17 05:34:06;;;;;;;;;;;16.80;42.50;;;;;;8365597;28;19928;-49
2021/11/17 05:38:33;;;;;;;;;;;16.80;42.50;;;;;;8364712;28;20308;-48
2021/11/17 05:42:51;;;;;;;;;;;16.80;42.60;;;;;;8359499;28;20286;-48
2021/11/17 05:47:04;;;;;;;;;;;16.80;42.50;;;;;;8364994;28;19956;-50
2021/11/17 05:51:07;;;;;;;;;;;16.80;42.50;;;;;;8364510;28;19920;-52
2021/11/17 05:55:15;;;;;;;;;;;16.80;42.50;;;;;;8364217;28;20400;-50
2021/11/17 05:59:27;;;;;;;;;;;16.80;42.50;;;;;;8364443;28;20023;-49
2021/11/17 06:03:30;;;;;;;;;;;16.80;42.50;;;;;;8363929;28;19917;-48
2021/11/17 06:07:31;;;;;;;;;;;16.80;42.50;;;;;;8364523;28;19955;-50
2021/11/17 06:11:34;;;;;;;;;;;16.80;42.40;;;;;;8363742;28;20373;-51
2021/11/17 06:15:36;;;;;;;;;;;16.80;42.40;;;;;;8363514;28;19966;-49
2021/11/17 06:19:41;;;;;;;;;;;16.80;42.40;;;;;;8362223;28;19979;-48
2021/11/17 06:23:46;;;;;;;;;;;16.80;42.50;;;;;;8361763;28;19916;-50
2021/11/17 06:27:58;;;;;;;;;;;16.80;42.40;;;;;;8369242;28;19939;-50
2021/11/17 06:32:00;;;;;;;;;;;16.80;42.40;;;;;;8362095;28;20400;-52
2021/11/17 06:36:00;;;;;;;;;;;16.80;42.50;;;;;;8361479;28;19917;-49
2021/11/17 06:40:01;;;;;;;;;;;16.80;42.40;;;;;;8361731;28;19960;-51
2021/11/17 06:44:02;;;;;;;;;;;16.80;42.50;;;;;;8361630;28;19952;-48
2021/11/17 06:48:02;;;;;;;;;;;16.80;42.50;;;;;;8361237;28;19943;-49
2021/11/17 06:52:04;;;;;;;;;;;16.80;42.40;;;;;;8361574;28;20038;-48
2021/11/17 06:56:04;;;;;;;;;;;16.80;42.40;;;;;;8362177;28;19920;-50
2021/11/17 07:00:09;;;;;;;;;;;16.80;42.40;;;;;;8360942;28;19951;-52
2021/11/17 07:04:10;;;;;;;;;;;16.80;42.40;;;;;;8361136;28;19917;-50
2021/11/17 07:08:10;;;;;;;;;;;16.80;42.30;;;;;;8366770;28;19916;-49
2021/11/17 07:12:12;;;;;;;;;;;16.80;42.40;;;;;;8367563;28;19926;-49
2021/11/17 07:16:13;;;;;;;;;;;16.80;42.30;;;;;;8368289;28;19913;-49
2021/11/17 07:20:14;;;;;;;;;;;16.80;42.90;;;;;;8368215;28;19936;-48
2021/11/17 07:24:14;;;;;;;;;;;16.80;42.40;;;;;;8367541;28;19917;-47
2021/11/17 07:28:15;;;;;;;;;;;16.80;42.30;;;;;;8367597;28;19927;-48
2021/11/17 07:32:16;;;;;;;;;;;16.80;42.30;;;;;;8367517;28;19932;-49
2021/11/17 07:36:16;;;;;;;;;;;16.80;42.40;;;;;;8367240;28;19920;-49
2021/11/17 07:40:17;;;;;;;;;;;16.80;42.30;;;;;;8367513;28;20003;-48
2021/11/17 07:44:18;;;;;;;;;;;16.80;42.30;;;;;;8367178;28;20395;-50
2021/11/17 07:48:20;;;;;;;;;;;16.80;42.30;;;;;;8366538;28;20019;-49
2021/11/17 07:52:21;;;;;;;;;;;16.80;42.30;;;;;;8367136;28;20255;-49
2021/11/17 07:56:21;;;;;;;;;;;16.80;42.30;;;;;;8367139;28;19921;-48
2021/11/17 08:00:26;;;;;;;;;;;16.80;42.30;;;;;;8366071;28;19947;-49
2021/11/17 08:04:33;;;;;;;;;;;16.80;42.30;;;;;;8366458;28;19917;-49
2021/11/17 08:08:35;;;;;;;;;;;16.80;42.20;;;;;;8367735;28;20366;-49
2021/11/17 08:12:36;;;;;;;;;;;16.80;42.20;;;;;;8366049;28;20014;-49
2021/11/17 08:16:37;;;;;;;;;;;16.80;42.10;;;;;;8366238;28;19917;-50
2021/11/17 08:20:38;;;;;;;;;;;16.80;42.10;;;;;;8364864;28;19928;-48
2021/11/17 08:24:39;;;;;;;;;;;16.90;42.20;;;;;;8366362;28;20377;-50
2021/11/17 08:28:41;;;;;;;;;;;16.80;42.10;;;;;;8365797;28;20425;-49
2021/11/17 08:32:43;;;;;;;;;;;16.80;42.10;;;;;;8365183;28;19932;-49
2021/11/17 08:36:43;;;;;;;;;;;16.80;42.10;;;;;;8365926;28;19936;-51
2021/11/17 08:40:48;;;;;;;;;;;16.80;42.10;;;;;;8365438;28;19917;-52
2021/11/17 08:44:51;;;;;;;;;;;16.80;42.20;;;;;;8364893;28;20403;-49
2021/11/17 08:48:53;;;;;;;;;;;16.80;42.10;;;;;;8365470;28;20400;-50
2021/11/17 08:52:54;;;;;;;;;;;16.80;42.10;;;;;;8365160;28;19925;-50
2021/11/17 08:56:58;;;;;;;;;;;16.80;42.00;;;;;;8364557;28;20315;-49
2021/11/17 09:00:59;;;;;;;;;;;16.80;42.10;;;;;;8365069;28;20062;-50
2021/11/17 09:05:00;;;;;;;;;;;16.80;42.00;;;;;;8365266;28;19920;-53
2021/11/17 09:09:05;;;;;;;;;;;16.80;42.00;;;;;;8365832;28;20335;-49
2021/11/17 09:13:06;;;;;;;;;;;16.80;42.00;;;;;;8366378;28;19947;-48
2021/11/17 09:17:07;;;;;;;;;;;16.80;42.00;;;;;;8366320;28;19924;-49
2021/11/17 09:21:10;;;;;;;;;;;16.80;42.00;;;;;;8365495;28;19924;-48
2021/11/17 09:25:11;;;;;;;;;;;16.80;42.00;;;;;;8365995;28;20278;-49
2021/11/17 09:29:11;;;;;;;;;;;16.90;42.00;;;;;;8365791;28;20000;-48
2021/11/17 09:33:14;;;;;;;;;;;16.90;42.00;;;;;;8364878;28;19924;-49
2021/11/17 09:37:14;;;;;;;;;;;16.90;42.00;;;;;;8365873;28;20427;-50
2021/11/17 09:41:15;;;;;;;;;;;16.90;42.10;;;;;;8365400;28;19920;-50
2021/11/17 09:45:16;;;;;;;;;;;16.80;42.00;;;;;;8364662;28;19927;-48
2021/11/17 09:49:20;;;;;;;;;;;16.80;42.00;;;;;;8365161;28;19912;-51
2021/11/17 09:53:26;;;;;;;;;;;16.80;42.00;;;;;;8364979;28;20378;-50
2021/11/17 09:57:28;;;;;;;;;;;16.80;42.00;;;;;;8364405;28;19920;-52
2021/11/17 10:01:31;;;;;;;;;;;16.80;42.00;;;;;;8364848;28;19978;-49
2021/11/17 10:06:15;;;;;;;;;;;16.90;42.10;;;;;;8364185;28;19913;-52
2021/11/17 10:14:45;;;;;;;;;;;16.90;42.00;;;;;;8366587;28;20058;-51
2021/11/17 10:18:48;;;;;;;;;;;16.90;42.00;;;;;;8368039;28;19924;-50
2021/11/17 10:22:51;;;;;;;;;;;16.90;42.00;;;;;;8364189;28;19925;-50
2021/11/17 10:26:57;;;;;;;;;;;16.90;42.00;;;;;;8363463;28;19939;-49
2021/11/17 10:30:57;;;;;;;;;;;16.90;42.00;;;;;;8363906;28;20352;-49
2021/11/17 10:34:59;;;;;;;;;;;16.90;42.00;;;;;;8363817;28;19924;-51
2021/11/17 10:39:06;;;;;;;;;;;16.90;42.00;;;;;;8363110;28;19917;-52
2021/11/17 10:43:07;;;;;;;;;;;16.90;42.00;;;;;;8363055;28;19912;-51
2021/11/17 10:47:16;;;;;;;;;;;16.90;42.00;;;;;;8363729;28;19913;-51
2021/11/17 10:51:26;;;;;;;;;;;16.90;41.90;;;;;;8362871;28;19948;-51
2021/11/17 10:55:32;;;;;;;;;;;16.90;41.90;;;;;;8363203;28;19987;-50
2021/11/17 10:59:33;;;;;;;;;;;16.90;42.00;;;;;;8362791;28;20267;-53
2021/11/17 11:03:36;;;;;;;;;;;16.90;41.90;;;;;;8363115;28;19916;-49
2021/11/17 11:07:40;;;;;;;;;;;16.90;41.90;;;;;;8358303;28;19919;-51
2021/11/17 11:11:42;;;;;;;;;;;16.90;41.90;;;;;;8357876;28;20366;-50
2021/11/17 11:15:45;;;;;;;;;;;16.90;41.90;;;;;;8362821;28;19971;-51
2021/11/17 11:19:46;;;;;;;;;;;16.90;41.80;;;;;;8362996;28;19921;-53
2021/11/17 11:24:05;;;;;;;;;;;17.00;41.80;;;;;;8363587;28;20336;-52
2021/11/17 11:28:20;;;;;;;;;;;17.00;41.80;;;;;;8364833;28;19966;-50
2021/11/17 11:32:30;;;;;;;;;;;17.00;41.80;;;;;;8364599;28;19925;-50
2021/11/17 11:36:32;;;;;;;;;;;17.00;41.80;;;;;;8365006;28;20008;-48
2021/11/17 11:40:51;;;;;;;;;;;17.00;41.80;;;;;;8363367;28;19917;-48
2021/11/17 11:44:59;;;;;;;;;;;17.00;42.30;;;;;;8362252;28;20051;-49
2021/11/17 11:49:03;;;;;;;;;;;17.00;41.80;;;;;;8362416;28;19917;-48
2021/11/17 11:53:06;;;;;;;;;;;17.00;41.80;;;;;;8364321;28;20472;-50
2021/11/17 11:57:13;;;;;;;;;;;17.00;41.80;;;;;;8368603;28;19967;-49
2021/11/17 12:01:22;;;;;;;;;;;17.00;41.80;;;;;;8368608;28;19917;-49
2021/11/17 12:05:31;;;;;;;;;;;17.00;41.80;;;;;;8368268;28;19974;-49
2021/11/17 12:09:34;;;;;;;;;;;17.00;41.70;;;;;;8367969;28;20008;-50
2021/11/17 12:13:39;;;;;;;;;;;17.00;41.70;;;;;;8368300;28;20004;-51
2021/11/17 12:17:40;;;;;;;;;;;17.00;41.70;;;;;;8367820;28;19917;-49
2021/11/17 12:21:41;;;;;;;;;;;17.00;41.70;;;;;;8368177;28;19940;-49
2021/11/17 12:25:51;;;;;;;;;;;17.00;41.70;;;;;;8367853;28;19912;-49
2021/11/17 12:29:56;;;;;;;;;;;17.00;41.70;;;;;;8367082;28;19923;-50
2021/11/17 12:34:18;;;;;;;;;;;17.00;41.60;;;;;;8367507;28;19928;-49
2021/11/17 12:38:24;;;;;;;;;;;17.00;41.60;;;;;;8367450;28;19956;-51
2021/11/17 12:42:27;;;;;;;;;;;17.00;41.60;;;;;;8366762;28;20010;-49
2021/11/17 12:46:30;;;;;;;;;;;17.00;41.60;;;;;;8367376;28;19936;-49
2021/11/17 12:50:35;;;;;;;;;;;17.00;41.60;;;;;;8366399;28;19947;-48
2021/11/17 12:54:44;;;;;;;;;;;17.00;41.60;;;;;;8366675;28;19929;-48
2021/11/17 12:58:48;;;;;;;;;;;17.00;41.60;;;;;;8366890;28;19920;-48
2021/11/17 13:02:55;;;;;;;;;;;17.00;41.60;;;;;;8366135;28;19927;-49
2021/11/17 13:06:58;;;;;;;;;;;17.00;41.60;;;;;;8366288;28;19917;-49
2021/11/17 13:10:58;;;;;;;;;;;17.00;41.60;;;;;;8366164;28;20336;-49
2021/11/17 13:15:05;;;;;;;;;;;17.10;41.60;;;;;;8365525;28;19923;-48
2021/11/17 13:19:17;;;;;;;;;;;17.00;41.60;;;;;;8365864;28;20397;-50
2021/11/17 13:23:30;;;;;;;;;;;17.10;41.60;;;;;;8366144;28;19960;-50
2021/11/17 13:27:35;;;;;;;;;;;17.10;41.60;;;;;;8365467;28;19969;-51
2021/11/17 13:31:38;;;;;;;;;;;17.00;41.60;;;;;;8365434;28;19975;-50
2021/11/17 13:35:40;;;;;;;;;;;17.10;41.60;;;;;;8365102;28;19924;-48
2021/11/17 13:39:40;;;;;;;;;;;17.00;41.50;;;;;;8365619;28;19952;-49
2021/11/17 13:43:41;;;;;;;;;;;17.00;41.60;;;;;;8365492;28;19913;-51
2021/11/17 13:47:41;;;;;;;;;;;17.00;41.60;;;;;;8364759;28;19916;-52
2021/11/17 13:51:42;;;;;;;;;;;17.00;41.60;;;;;;8364972;28;20366;-53
2021/11/17 13:55:44;;;;;;;;;;;17.00;41.60;;;;;;8364903;28;20057;-52
2021/11/17 13:59:45;;;;;;;;;;;17.00;41.60;;;;;;8364358;28;19916;-51
2021/11/17 14:03:46;;;;;;;;;;;17.00;41.50;;;;;;8349933;28;19999;-49
2021/11/17 14:07:47;;;;;;;;;;;17.10;41.60;;;;;;8359362;28;19917;-51
2021/11/17 14:11:48;;;;;;;;;;;17.00;41.50;;;;;;8363784;28;19925;-51
2021/11/17 14:15:48;;;;;;;;;;;17.00;41.50;;;;;;8363563;28;20027;-50
2021/11/17 14:19:50;;;;;;;;;;;17.00;41.50;;;;;;8364112;28;20012;-50
2021/11/17 14:23:50;;;;;;;;;;;17.00;41.50;;;;;;8363684;28;20219;-53
2021/11/17 14:27:56;;;;;;;;;;;17.00;41.50;;;;;;8363624;28;19921;-52
2021/11/17 14:31:57;;;;;;;;;;;17.00;41.40;;;;;;8363466;28;19953;-49
2021/11/17 14:35:59;;;;;;;;;;;17.00;41.50;;;;;;8363134;28;20444;-49
2021/11/17 14:40:00;;;;;;;;;;;17.00;41.50;;;;;;8363026;28;19917;-50
2021/11/17 14:44:01;;;;;;;;;;;17.00;41.40;;;;;;8363484;28;19935;-53
2021/11/17 14:48:02;;;;;;;;;;;17.00;41.50;;;;;;8362818;28;19924;-50
2021/11/17 14:52:04;;;;;;;;;;;17.00;41.50;;;;;;8363432;28;20015;-52
2021/11/17 14:56:05;;;;;;;;;;;17.00;41.50;;;;;;8362950;28;20003;-49
2021/11/17 15:00:07;;;;;;;;;;;17.00;41.50;;;;;;8362621;28;19925;-49
2021/11/17 15:04:09;;;;;;;;;;;17.00;41.50;;;;;;8362994;28;19913;-51
2021/11/17 15:08:10;;;;;;;;;;;17.00;41.50;;;;;;8363032;28;19924;-49
2021/11/17 15:12:15;;;;;;;;;;;17.00;41.50;;;;;;8362365;28;20433;-52
2021/11/17 15:16:16;;;;;;;;;;;17.00;41.50;;;;;;8367945;28;19939;-50
2021/11/17 15:20:17;;;;;;;;;;;17.00;41.40;;;;;;8362567;28;19967;-52
2021/11/17 15:24:18;;;;;;;;;;;17.00;41.40;;;;;;8362508;28;19920;-50
2021/11/17 15:28:18;;;;;;;;;;;17.00;41.40;;;;;;8366288;28;20317;-51
2021/11/17 15:32:19;;;;;;;;;;;17.00;41.50;;;;;;8369380;28;19975;-50
2021/11/17 15:36:20;;;;;;;;;;;17.00;41.50;;;;;;8368804;28;19917;-50
2021/11/17 15:40:22;;;;;;;;;;;17.00;41.40;;;;;;8369111;28;19975;-52
2021/11/17 15:44:22;;;;;;;;;;;17.00;41.40;;;;;;8369340;28;19920;-51
2021/11/17 15:48:23;;;;;;;;;;;17.00;41.50;;;;;;8368286;28;20366;-50
2021/11/17 15:52:24;;;;;;;;;;;17.00;41.40;;;;;;8368752;28;19928;-51
2021/11/17 15:56:25;;;;;;;;;;;17.00;41.40;;;;;;8368590;28;19928;-52
2021/11/17 16:00:27;;;;;;;;;;;17.00;41.40;;;;;;8367883;28;20385;-50
2021/11/17 16:04:29;;;;;;;;;;;17.00;41.40;;;;;;8368683;28;20432;-51
2021/11/17 16:08:31;;;;;;;;;;;17.00;41.40;;;;;;8367941;28;19924;-51
2021/11/17 16:12:34;;;;;;;;;;;17.00;41.40;;;;;;8367540;28;21294;-52
2021/11/17 16:16:35;;;;;;;;;;;17.00;41.40;;;;;;8368061;28;19917;-49
2021/11/17 16:20:45;;;;;;;;;;;17.00;41.40;;;;;;8367386;28;19965;-52
2021/11/17 16:29:05;;;;;;;;;;;17.00;41.40;;;;;;8371824;28;19975;-51
2021/11/17 16:33:05;;;;;;;;;;;17.00;41.40;;;;;;8367025;28;20370;-50
2021/11/17 16:37:06;;;;;;;;;;;17.00;41.40;;;;;;8363432;28;19921;-51
2021/11/17 16:41:06;;;;;;;;;;;17.00;41.40;;;;;;8365413;28;20361;-53
2021/11/17 16:45:08;;;;;;;;;;;17.00;41.40;;;;;;8365826;28;19921;-52
2021/11/17 16:49:09;;;;;;;;;;;17.00;41.40;;;;;;8366323;28;19948;-52
2021/11/17 16:53:10;;;;;;;;;;;17.00;41.40;;;;;;8365083;28;19932;-52
2021/11/17 16:57:11;;;;;;;;;;;17.00;41.50;;;;;;8363012;28;19964;-52
2021/11/17 17:01:12;;;;;;;;;;;17.00;41.40;;;;;;8364949;28;19924;-49
2021/11/17 17:05:13;;;;;;;;;;;17.00;41.50;;;;;;8348024;28;19913;-50
2021/11/17 17:09:14;;;;;;;;;;;17.00;42.00;;;;;;8362870;28;20393;-53
2021/11/17 17:13:14;;;;;;;;;;;17.00;41.50;;;;;;8366611;28;19928;-54
2021/11/17 17:17:15;;;;;;;;;;;17.00;41.50;;;;;;8362835;28;19923;-53
2021/11/17 17:21:15;;;;;;;;;;;17.00;41.50;;;;;;8365817;28;20036;-48
2021/11/17 17:25:17;;;;;;;;;;;17.00;41.50;;;;;;8366312;28;19928;-53
2021/11/17 17:29:18;;;;;;;;;;;17.00;41.40;;;;;;8364917;28;20007;-54
2021/11/17 17:33:19;;;;;;;;;;;17.00;41.50;;;;;;8364531;28;19925;-53
2021/11/17 17:37:20;;;;;;;;;;;17.00;41.50;;;;;;8364569;28;19924;-53
2021/11/17 17:41:22;;;;;;;;;;;17.00;41.50;;;;;;8365382;28;20386;-52
2021/11/17 17:45:23;;;;;;;;;;;17.00;41.40;;;;;;8364636;28;19917;-53
2021/11/17 17:49:23;;;;;;;;;;;17.00;41.50;;;;;;8364202;28;19921;-51
2021/11/17 17:53:25;;;;;;;;;;;17.00;41.40;;;;;;8364214;28;20299;-53
2021/11/17 17:57:26;;;;;;;;;;;17.00;41.40;;;;;;8364143;28;19925;-51
2021/11/17 18:01:27;;;;;;;;;;;17.00;41.40;;;;;;8363489;28;20378;-49
2021/11/17 18:05:28;;;;;;;;;;;17.00;41.40;;;;;;8364902;28;19937;-52
2021/11/17 18:09:28;;;;;;;;;;;17.00;41.40;;;;;;8363682;28;19921;-51
2021/11/17 18:13:29;;;;;;;;;;;17.00;41.40;;;;;;8364338;28;19925;-53
2021/11/17 18:17:29;;;;;;;;;;;17.00;41.40;;;;;;8363159;28;19919;-52
2021/11/17 18:21:30;;;;;;;;;;;17.00;41.40;;;;;;8363379;28;19944;-50
2021/11/17 18:25:40;;;;;;;;;;;17.00;41.50;;;;;;8364151;28;19949;-52
2021/11/17 18:29:42;;;;;;;;;;;17.00;41.50;;;;;;8363572;28;19921;-50
2021/11/17 18:33:43;;;;;;;;;;;17.00;41.50;;;;;;8363828;28;19929;-52
2021/11/17 18:37:43;;;;;;;;;;;17.00;41.50;;;;;;8363425;28;20013;-50
2021/11/17 18:41:46;;;;;;;;;;;17.00;41.50;;;;;;8362985;28;19923;-51
2021/11/17 18:45:48;;;;;;;;;;;17.00;41.50;;;;;;8363343;28;19920;-52
2021/11/17 18:49:48;;;;;;;;;;;17.00;41.50;;;;;;8363431;28;20290;-50
2021/11/17 18:53:49;;;;;;;;;;;17.00;41.50;;;;;;8362432;28;19948;-51
2021/11/17 18:57:49;;;;;;;;;;;17.00;41.50;;;;;;8363105;28;20336;-50
2021/11/17 19:01:52;;;;;;;;;;;17.00;41.40;;;;;;8362854;28;19913;-53
2021/11/17 19:05:53;;;;;;;;;;;17.00;41.50;;;;;;8363085;28;19971;-52
2021/11/17 19:09:54;;;;;;;;;;;17.00;41.50;;;;;;8363164;28;19920;-52
2021/11/17 19:13:55;;;;;;;;;;;17.00;41.50;;;;;;8364243;28;19925;-52
2021/11/17 19:17:55;;;;;;;;;;;17.00;41.50;;;;;;8372966;28;19923;-52
2021/11/17 19:21:56;;;;;;;;;;;17.00;41.50;;;;;;8363109;28;19923;-52
2021/11/17 19:25:57;;;;;;;;;;;17.00;41.50;;;;;;8362937;28;19921;-53
2021/11/17 19:29:58;;;;;;;;;;;17.00;41.50;;;;;;8362570;28;20010;-51
2021/11/17 19:33:58;;;;;;;;;;;17.00;41.50;;;;;;8362460;28;19928;-51
2021/11/17 19:37:59;;;;;;;;;;;17.00;41.40;;;;;;8362472;28;20289;-52
2021/11/17 19:42:03;;;;;;;;;;;17.00;41.50;;;;;;8362138;28;19923;-49
2021/11/17 19:46:04;;;;;;;;;;;17.00;41.50;;;;;;8362284;28;19917;-54
2021/11/17 19:50:05;;;;;;;;;;;17.00;41.40;;;;;;8362283;28;20239;-50
2021/11/17 19:54:07;;;;;;;;;;;17.00;42.00;;;;;;8361919;28;19932;-50
2021/11/17 19:58:08;;;;;;;;;;;17.00;41.50;;;;;;8362777;28;19921;-51
2021/11/17 20:02:10;;;;;;;;;;;17.00;41.50;;;;;;8362536;28;20286;-50
2021/11/17 20:06:11;;;;;;;;;;;17.00;41.50;;;;;;8361866;28;19963;-51
2021/11/17 20:10:13;;;;;;;;;;;17.00;41.50;;;;;;8361087;28;19917;-49
2021/11/17 20:14:14;;;;;;;;;;;17.00;41.50;;;;;;8363800;28;20325;-51
2021/11/17 20:18:15;;;;;;;;;;;17.10;41.50;;;;;;8363916;28;19963;-51
2021/11/17 20:22:16;;;;;;;;;;;17.00;41.50;;;;;;8367889;28;19916;-50
2021/11/17 20:26:17;;;;;;;;;;;17.00;41.50;;;;;;8368180;28;19924;-50
2021/11/17 20:30:18;;;;;;;;;;;17.00;41.50;;;;;;8366044;28;19972;-53
2021/11/17 20:34:18;;;;;;;;;;;17.00;41.50;;;;;;8365279;28;20369;-51
2021/11/17 20:38:20;;;;;;;;;;;17.00;41.50;;;;;;8365261;28;19917;-51
2021/11/17 20:42:21;;;;;;;;;;;17.00;41.50;;;;;;8363216;28;19924;-50
2021/11/17 20:46:21;;;;;;;;;;;17.00;41.50;;;;;;8367712;28;19952;-50
2021/11/17 20:50:23;;;;;;;;;;;17.00;41.50;;;;;;8366956;28;20397;-51
2021/11/17 20:54:23;;;;;;;;;;;17.00;41.50;;;;;;8366219;28;20016;-49
2021/11/17 20:58:24;;;;;;;;;;;17.00;41.50;;;;;;8366997;28;19921;-48
2021/11/17 21:02:24;;;;;;;;;;;17.00;41.50;;;;;;8366745;28;19921;-49
2021/11/17 21:06:25;;;;;;;;;;;17.00;41.50;;;;;;8366983;28;19956;-52
2021/11/17 21:10:26;;;;;;;;;;;17.00;41.50;;;;;;8366504;28;19917;-49
2021/11/17 21:14:33;;;;;;;;;;;17.00;41.50;;;;;;8366530;28;20032;-50
2021/11/17 21:18:33;;;;;;;;;;;17.00;41.50;;;;;;8366094;28;19986;-50
2021/11/17 21:22:34;;;;;;;;;;;17.00;41.50;;;;;;8366110;28;19913;-49
2021/11/17 21:26:34;;;;;;;;;;;17.00;41.50;;;;;;8365599;28;19913;-52
2021/11/17 21:30:35;;;;;;;;;;;17.00;41.50;;;;;;8365806;28;19924;-51
2021/11/17 21:34:37;;;;;;;;;;;17.00;41.60;;;;;;8365566;28;19925;-51
2021/11/17 21:38:38;;;;;;;;;;;17.00;41.50;;;;;;8365160;28;19951;-52
2021/11/17 21:42:39;;;;;;;;;;;17.00;41.50;;;;;;8365339;28;19966;-49
2021/11/17 21:46:40;;;;;;;;;;;17.00;41.50;;;;;;8365715;28;20323;-52
2021/11/17 21:50:41;;;;;;;;;;;17.00;41.50;;;;;;8364607;28;20011;-49
2021/11/17 21:54:42;;;;;;;;;;;17.00;41.60;;;;;;8365055;28;19929;-53
2021/11/17 21:58:44;;;;;;;;;;;17.00;41.60;;;;;;8365053;28;19923;-49
2021/11/17 22:02:44;;;;;;;;;;;17.00;41.60;;;;;;8364445;28;20422;-52
2021/11/17 22:06:45;;;;;;;;;;;17.00;41.50;;;;;;8365085;28;20003;-50
2021/11/17 22:10:50;;;;;;;;;;;17.00;41.60;;;;;;8364870;28;19924;-49
2021/11/17 22:14:50;;;;;;;;;;;17.00;41.50;;;;;;8363992;28;20354;-51
2021/11/17 22:18:51;;;;;;;;;;;17.00;41.50;;;;;;8364622;28;19917;-51
2021/11/17 22:22:51;;;;;;;;;;;17.00;41.60;;;;;;8364139;28;19913;-49
2021/11/17 22:26:52;;;;;;;;;;;17.00;41.60;;;;;;8363926;28;19913;-49
2021/11/17 22:30:53;;;;;;;;;;;17.00;41.60;;;;;;8364088;28;19923;-52
2021/11/17 22:34:58;;;;;;;;;;;17.00;41.60;;;;;;8363853;28;19917;-50
2021/11/17 22:38:59;;;;;;;;;;;17.00;41.60;;;;;;8364206;28;19974;-53
2021/11/17 22:43:00;;;;;;;;;;;17.00;41.60;;;;;;8363511;28;20274;-48
2021/11/17 22:47:01;;;;;;;;;;;17.00;41.60;;;;;;8364073;28;19913;-49
2021/11/17 22:51:03;;;;;;;;;;;17.00;41.60;;;;;;8362854;28;19917;-49
2021/11/17 22:55:07;;;;;;;;;;;17.00;41.60;;;;;;8363155;28;19927;-50
2021/11/17 22:59:08;;;;;;;;;;;17.00;41.60;;;;;;8363109;28;19925;-49
2021/11/17 23:03:10;;;;;;;;;;;17.00;41.60;;;;;;8366817;28;19917;-50
2021/11/17 23:07:11;;;;;;;;;;;16.90;41.60;;;;;;8363627;28;19913;-48
2021/11/17 23:11:13;;;;;;;;;;;16.90;41.60;;;;;;8363035;28;19971;-49
2021/11/17 23:15:15;;;;;;;;;;;16.90;41.60;;;;;;8362612;28;19971;-50
2021/11/17 23:19:16;;;;;;;;;;;16.90;41.60;;;;;;8362983;28;19917;-52
2021/11/17 23:23:18;;;;;;;;;;;16.90;41.60;;;;;;8362883;28;20354;-50
2021/11/17 23:27:19;;;;;;;;;;;16.90;41.60;;;;;;8362667;28;20255;-49
2021/11/17 23:31:21;;;;;;;;;;;16.90;41.60;;;;;;8362752;28;19932;-50
2021/11/17 23:35:21;;;;;;;;;;;16.90;41.60;;;;;;8362719;28;19917;-50
2021/11/17 23:39:22;;;;;;;;;;;16.90;41.60;;;;;;8362198;28;20286;-50
2021/11/17 23:43:24;;;;;;;;;;;16.90;41.60;;;;;;8362146;28;20362;-49
2021/11/17 23:47:24;;;;;;;;;;;16.90;41.70;;;;;;8363178;28;19923;-52
2021/11/17 23:51:25;;;;;;;;;;;16.90;41.60;;;;;;8369174;28;19924;-50
2021/11/17 23:55:27;;;;;;;;;;;16.90;41.60;;;;;;8368616;28;20012;-49
2021/11/17 23:59:28;;;;;;;;;;;16.90;41.60;;;;;;8368730;28;19921;-50
